createdAt,value
2018-09-02T00:00:31.593Z,20.97
2018-09-02T00:01:03.724Z,21
2018-09-02T00:01:35.832Z,21.01
2018-09-02T00:02:07.851Z,21
2018-09-02T00:02:39.911Z,21.01
2018-09-02T00:03:11.983Z,21.08
2018-09-02T00:03:44.973Z,20.91
2018-09-02T00:04:16.984Z,21
2018-09-02T00:04:49.105Z,20.96
2018-09-02T00:05:21.182Z,21.01
2018-09-02T00:05:53.258Z,20.94
2018-09-02T00:06:25.325Z,20.94
2018-09-02T00:06:57.394Z,20.96
2018-09-02T00:07:29.484Z,20.98
2018-09-02T00:08:01.483Z,20.96
2018-09-02T00:08:33.528Z,20.97
2018-09-02T00:09:05.632Z,21.03
2018-09-02T00:09:37.722Z,20.86
2018-09-02T00:10:09.767Z,20.86
2018-09-02T00:10:41.823Z,20.96
2018-09-02T00:11:13.848Z,21.04
2018-09-02T00:11:45.837Z,20.85
2018-09-02T00:12:17.876Z,20.97
2018-09-02T00:12:49.947Z,20.91
2018-09-02T00:13:22.000Z,20.9
2018-09-02T00:13:54.087Z,20.86
2018-09-02T00:14:26.115Z,20.94
2018-09-02T00:14:58.187Z,20.88
2018-09-02T00:15:30.260Z,20.91
2018-09-02T00:16:02.402Z,20.85
2018-09-02T00:16:34.478Z,20.9
2018-09-02T00:17:06.529Z,20.97
2018-09-02T00:17:38.571Z,20.91
2018-09-02T00:18:10.624Z,20.9
2018-09-02T00:18:42.669Z,20.94
2018-09-02T00:19:14.745Z,20.94
2018-09-02T00:19:46.766Z,20.88
2018-09-02T00:20:18.870Z,20.9
2018-09-02T00:20:50.878Z,20.82
2018-09-02T00:21:22.974Z,20.86
2018-09-02T00:21:55.055Z,20.86
2018-09-02T00:22:27.120Z,20.86
2018-09-02T00:22:59.157Z,20.9
2018-09-02T00:23:31.228Z,20.78
2018-09-02T00:24:03.361Z,20.76
2018-09-02T00:24:35.911Z,20.88
2018-09-02T00:25:07.949Z,20.83
2018-09-02T00:25:40.023Z,20.79
2018-09-02T00:26:12.065Z,20.78
2018-09-02T00:26:44.130Z,20.81
2018-09-02T00:27:16.179Z,20.85
2018-09-02T00:27:48.242Z,20.79
2018-09-02T00:28:21.058Z,20.88
2018-09-02T00:28:53.087Z,20.76
2018-09-02T00:29:25.138Z,20.79
2018-09-02T00:29:57.180Z,20.79
2018-09-02T00:30:29.225Z,20.82
2018-09-02T00:31:01.357Z,20.81
2018-09-02T00:31:33.479Z,20.79
2018-09-02T00:32:05.533Z,20.75
2018-09-02T00:32:37.606Z,20.78
2018-09-02T00:33:09.689Z,20.79
2018-09-02T00:33:41.841Z,20.78
2018-09-02T00:34:13.917Z,20.76
2018-09-02T00:34:45.936Z,20.67
2018-09-02T00:35:17.960Z,20.78
2018-09-02T00:35:50.029Z,20.81
2018-09-02T00:36:22.101Z,20.78
2018-09-02T00:36:54.148Z,20.75
2018-09-02T00:37:26.187Z,20.76
2018-09-02T00:37:58.247Z,20.68
2018-09-02T00:38:30.297Z,20.68
2018-09-02T00:39:02.479Z,20.74
2018-09-02T00:39:34.559Z,20.68
2018-09-02T00:40:06.627Z,20.72
2018-09-02T00:40:38.697Z,20.66
2018-09-02T00:41:10.781Z,20.75
2018-09-02T00:41:42.840Z,20.71
2018-09-02T00:42:14.921Z,20.68
2018-09-02T00:42:46.986Z,20.71
2018-09-02T00:43:19.065Z,20.67
2018-09-02T00:43:51.136Z,20.68
2018-09-02T00:44:23.209Z,20.71
2018-09-02T00:44:55.274Z,20.63
2018-09-02T00:45:27.298Z,20.61
2018-09-02T00:45:59.359Z,20.66
2018-09-02T00:46:31.445Z,20.68
2018-09-02T00:47:03.499Z,20.61
2018-09-02T00:47:35.579Z,20.64
2018-09-02T00:48:07.596Z,20.66
2018-09-02T00:48:39.668Z,20.67
2018-09-02T00:49:11.737Z,20.68
2018-09-02T00:49:43.802Z,20.66
2018-09-02T00:50:15.842Z,20.6
2018-09-02T00:50:47.890Z,20.57
2018-09-02T00:51:19.997Z,20.61
2018-09-02T00:51:52.077Z,20.63
2018-09-02T00:52:24.130Z,20.6
2018-09-02T00:52:56.170Z,20.61
2018-09-02T00:53:28.238Z,20.58
2018-09-02T00:54:00.332Z,20.54
2018-09-02T00:54:32.489Z,20.61
2018-09-02T00:55:04.555Z,20.56
2018-09-02T00:55:36.638Z,20.56
2018-09-02T00:56:08.656Z,20.53
2018-09-02T00:56:40.720Z,20.6
2018-09-02T00:57:12.755Z,20.56
2018-09-02T00:57:44.820Z,20.56
2018-09-02T00:58:16.883Z,20.54
2018-09-02T00:58:49.008Z,20.58
2018-09-02T00:59:21.095Z,20.54
2018-09-02T00:59:53.172Z,20.58
2018-09-02T01:00:25.216Z,20.56
2018-09-02T01:00:58.184Z,20.57
2018-09-02T01:01:30.334Z,20.54
2018-09-02T01:02:02.480Z,20.61
2018-09-02T01:02:34.545Z,20.64
2018-09-02T01:03:06.612Z,20.51
2018-09-02T01:03:38.643Z,20.48
2018-09-02T01:04:10.660Z,20.57
2018-09-02T01:04:42.654Z,20.57
2018-09-02T01:05:14.696Z,20.54
2018-09-02T01:05:46.777Z,20.54
2018-09-02T01:06:18.801Z,20.48
2018-09-02T01:06:50.854Z,20.54
2018-09-02T01:07:22.994Z,20.51
2018-09-02T01:07:55.106Z,20.56
2018-09-02T01:08:27.154Z,20.51
2018-09-02T01:08:59.160Z,20.42
2018-09-02T01:09:31.166Z,20.49
2018-09-02T01:10:03.264Z,20.51
2018-09-02T01:10:35.308Z,20.4
2018-09-02T01:11:07.375Z,20.48
2018-09-02T01:11:39.454Z,20.44
2018-09-02T01:12:11.576Z,20.51
2018-09-02T01:12:43.643Z,20.53
2018-09-02T01:13:15.701Z,20.42
2018-09-02T01:13:47.842Z,20.37
2018-09-02T01:14:19.917Z,20.38
2018-09-02T01:14:51.944Z,20.42
2018-09-02T01:15:24.008Z,20.38
2018-09-02T01:15:56.069Z,20.38
2018-09-02T01:16:28.112Z,20.38
2018-09-02T01:17:00.167Z,20.37
2018-09-02T01:17:32.201Z,20.42
2018-09-02T01:18:04.224Z,20.34
2018-09-02T01:18:36.410Z,20.35
2018-09-02T01:19:09.066Z,20.48
2018-09-02T01:19:41.089Z,20.41
2018-09-02T01:20:13.112Z,20.42
2018-09-02T01:20:45.180Z,20.34
2018-09-02T01:21:17.203Z,20.38
2018-09-02T01:21:49.235Z,20.38
2018-09-02T01:22:21.377Z,20.41
2018-09-02T01:22:53.471Z,20.38
2018-09-02T01:23:25.511Z,20.37
2018-09-02T01:23:57.558Z,20.42
2018-09-02T01:24:29.620Z,20.37
2018-09-02T01:25:01.804Z,20.42
2018-09-02T01:25:33.971Z,20.34
2018-09-02T01:26:06.029Z,20.35
2018-09-02T01:26:38.186Z,20.37
2018-09-02T01:27:10.240Z,20.38
2018-09-02T01:27:42.316Z,20.41
2018-09-02T01:28:14.375Z,20.37
2018-09-02T01:28:46.450Z,20.42
2018-09-02T01:29:19.413Z,20.32
2018-09-02T01:29:51.465Z,20.4
2018-09-02T01:30:23.532Z,20.38
2018-09-02T01:30:55.524Z,20.27
2018-09-02T01:31:27.555Z,20.26
2018-09-02T01:31:59.611Z,20.25
2018-09-02T01:32:31.796Z,20.3
2018-09-02T01:33:03.865Z,20.35
2018-09-02T01:33:35.918Z,20.25
2018-09-02T01:34:07.953Z,20.25
2018-09-02T01:34:40.025Z,20.26
2018-09-02T01:35:12.133Z,20.22
2018-09-02T01:35:44.209Z,20.25
2018-09-02T01:36:16.232Z,20.35
2018-09-02T01:36:48.294Z,20.23
2018-09-02T01:37:20.421Z,20.26
2018-09-02T01:37:52.437Z,20.2
2018-09-02T01:38:24.502Z,20.26
2018-09-02T01:38:56.559Z,20.23
2018-09-02T01:39:28.622Z,20.23
2018-09-02T01:40:00.663Z,20.25
2018-09-02T01:40:32.734Z,20.26
2018-09-02T01:41:04.775Z,20.26
2018-09-02T01:41:36.844Z,20.27
2018-09-02T01:42:08.853Z,20.29
2018-09-02T01:42:40.909Z,20.27
2018-09-02T01:43:12.972Z,20.26
2018-09-02T01:43:45.023Z,20.19
2018-09-02T01:44:17.099Z,20.3
2018-09-02T01:44:49.146Z,20.29
2018-09-02T01:45:21.198Z,20.29
2018-09-02T01:45:53.189Z,20.18
2018-09-02T01:46:25.266Z,20.19
2018-09-02T01:46:57.310Z,20.25
2018-09-02T01:47:29.337Z,20.27
2018-09-02T01:48:01.371Z,20.12
2018-09-02T01:48:33.410Z,20.26
2018-09-02T01:49:05.453Z,20.18
2018-09-02T01:49:37.500Z,20.2
2018-09-02T01:50:09.595Z,20.18
2018-09-02T01:50:41.775Z,20.12
2018-09-02T01:51:13.949Z,20.18
2018-09-02T01:51:46.030Z,20.11
2018-09-02T01:52:18.130Z,20.18
2018-09-02T01:52:50.209Z,20.18
2018-09-02T01:53:22.309Z,20.16
2018-09-02T01:53:54.390Z,20.2
2018-09-02T01:54:26.466Z,20.15
2018-09-02T01:54:58.616Z,20.11
2018-09-02T01:55:30.640Z,20.15
2018-09-02T01:56:02.689Z,20.25
2018-09-02T01:56:34.767Z,20.18
2018-09-02T01:57:06.818Z,20.19
2018-09-02T01:57:38.857Z,20.2
2018-09-02T01:58:10.950Z,20.15
2018-09-02T01:58:42.979Z,20.18
2018-09-02T01:59:14.980Z,20.12
2018-09-02T01:59:47.052Z,20.22
2018-09-02T02:00:19.136Z,20.16
2018-09-02T02:00:51.137Z,20.12
2018-09-02T02:01:23.185Z,20.12
2018-09-02T02:01:55.340Z,20.11
2018-09-02T02:02:27.448Z,20.05
2018-09-02T02:02:59.459Z,20.12
2018-09-02T02:03:31.504Z,20.05
2018-09-02T02:04:03.589Z,20.11
2018-09-02T02:04:35.651Z,20.12
2018-09-02T02:05:07.699Z,20.15
2018-09-02T02:05:39.767Z,20.11
2018-09-02T02:06:11.846Z,20.11
2018-09-02T02:06:43.889Z,20.18
2018-09-02T02:07:15.910Z,20.12
2018-09-02T02:07:48.004Z,20.11
2018-09-02T02:08:20.070Z,20.08
2018-09-02T02:08:52.114Z,20.08
2018-09-02T02:09:24.264Z,20.08
2018-09-02T02:09:56.332Z,20.07
2018-09-02T02:10:28.376Z,20.1
2018-09-02T02:11:00.442Z,20.05
2018-09-02T02:11:32.519Z,20.1
2018-09-02T02:12:04.634Z,20.05
2018-09-02T02:12:36.684Z,20.08
2018-09-02T02:13:08.751Z,20.1
2018-09-02T02:13:40.808Z,20.11
2018-09-02T02:14:12.835Z,20.07
2018-09-02T02:14:44.910Z,20.08
2018-09-02T02:15:16.941Z,20.05
2018-09-02T02:15:49.093Z,20.05
2018-09-02T02:16:21.208Z,20.05
2018-09-02T02:16:53.243Z,20.04
2018-09-02T02:17:25.294Z,20.04
2018-09-02T02:17:57.396Z,20.02
2018-09-02T02:18:29.509Z,20.07
2018-09-02T02:19:01.554Z,20.08
2018-09-02T02:19:33.632Z,20.04
2018-09-02T02:20:05.697Z,20.01
2018-09-02T02:20:37.717Z,20.01
2018-09-02T02:21:09.816Z,20.02
2018-09-02T02:21:41.881Z,20.02
2018-09-02T02:22:13.968Z,20.04
2018-09-02T02:22:46.051Z,20.04
2018-09-02T02:23:18.156Z,20.04
2018-09-02T02:23:50.232Z,20.02
2018-09-02T02:24:22.284Z,19.97
2018-09-02T02:24:54.345Z,20
2018-09-02T02:25:26.395Z,19.92
2018-09-02T02:25:59.133Z,20
2018-09-02T02:26:31.178Z,19.95
2018-09-02T02:27:03.231Z,19.98
2018-09-02T02:27:35.285Z,19.98
2018-09-02T02:28:07.332Z,19.9
2018-09-02T02:28:40.132Z,20
2018-09-02T02:29:12.179Z,19.93
2018-09-02T02:29:44.305Z,19.97
2018-09-02T02:30:17.041Z,19.9
2018-09-02T02:30:49.074Z,19.9
2018-09-02T02:31:21.129Z,19.95
2018-09-02T02:31:53.163Z,20
2018-09-02T02:32:25.198Z,20
2018-09-02T02:32:57.250Z,19.95
2018-09-02T02:33:29.304Z,19.93
2018-09-02T02:34:01.387Z,19.97
2018-09-02T02:34:33.405Z,20
2018-09-02T02:35:05.456Z,19.9
2018-09-02T02:35:37.575Z,19.92
2018-09-02T02:36:09.694Z,19.97
2018-09-02T02:36:41.753Z,19.86
2018-09-02T02:37:13.779Z,19.92
2018-09-02T02:37:45.837Z,19.9
2018-09-02T02:38:17.928Z,19.86
2018-09-02T02:38:50.047Z,19.87
2018-09-02T02:39:22.211Z,19.89
2018-09-02T02:39:54.240Z,19.85
2018-09-02T02:40:26.283Z,19.95
2018-09-02T02:40:58.334Z,19.87
2018-09-02T02:41:30.452Z,19.87
2018-09-02T02:42:02.517Z,19.92
2018-09-02T02:42:34.571Z,19.92
2018-09-02T02:43:06.683Z,19.9
2018-09-02T02:43:38.713Z,19.89
2018-09-02T02:44:10.754Z,19.82
2018-09-02T02:44:42.845Z,19.9
2018-09-02T02:45:14.907Z,19.89
2018-09-02T02:45:46.978Z,19.87
2018-09-02T02:46:18.981Z,19.83
2018-09-02T02:46:51.066Z,19.9
2018-09-02T02:47:23.221Z,19.87
2018-09-02T02:47:55.401Z,19.85
2018-09-02T02:48:27.519Z,19.85
2018-09-02T02:48:59.560Z,19.85
2018-09-02T02:49:31.628Z,19.89
2018-09-02T02:50:03.686Z,19.86
2018-09-02T02:50:35.688Z,19.83
2018-09-02T02:51:07.726Z,19.82
2018-09-02T02:51:39.778Z,19.92
2018-09-02T02:52:11.836Z,19.79
2018-09-02T02:52:43.916Z,19.86
2018-09-02T02:53:15.963Z,19.8
2018-09-02T02:53:47.986Z,19.86
2018-09-02T02:54:20.051Z,19.83
2018-09-02T02:54:53.045Z,19.8
2018-09-02T02:55:25.168Z,19.82
2018-09-02T02:55:57.252Z,19.75
2018-09-02T02:56:29.267Z,19.87
2018-09-02T02:57:01.343Z,19.9
2018-09-02T02:57:33.406Z,19.89
2018-09-02T02:58:05.487Z,19.79
2018-09-02T02:58:37.596Z,19.8
2018-09-02T02:59:09.599Z,19.78
2018-09-02T02:59:41.653Z,19.82
2018-09-02T03:00:13.698Z,19.89
2018-09-02T03:00:45.779Z,19.83
2018-09-02T03:01:17.953Z,19.9
2018-09-02T03:01:50.023Z,19.9
2018-09-02T03:02:22.087Z,19.78
2018-09-02T03:02:54.130Z,19.82
2018-09-02T03:03:26.150Z,19.78
2018-09-02T03:03:58.211Z,19.78
2018-09-02T03:04:30.232Z,19.79
2018-09-02T03:05:02.340Z,19.72
2018-09-02T03:05:34.475Z,19.82
2018-09-02T03:06:06.553Z,19.78
2018-09-02T03:06:38.601Z,19.79
2018-09-02T03:07:10.682Z,19.75
2018-09-02T03:07:42.768Z,19.75
2018-09-02T03:08:14.851Z,19.8
2018-09-02T03:08:46.927Z,19.75
2018-09-02T03:09:18.978Z,19.79
2018-09-02T03:09:51.165Z,19.78
2018-09-02T03:10:23.231Z,19.74
2018-09-02T03:10:55.410Z,19.64
2018-09-02T03:11:27.422Z,19.83
2018-09-02T03:11:59.504Z,19.72
2018-09-02T03:12:31.566Z,19.79
2018-09-02T03:13:04.210Z,19.83
2018-09-02T03:13:36.250Z,19.79
2018-09-02T03:14:08.383Z,19.74
2018-09-02T03:14:40.444Z,19.74
2018-09-02T03:15:12.465Z,19.74
2018-09-02T03:15:44.527Z,19.75
2018-09-02T03:16:16.656Z,19.79
2018-09-02T03:16:49.566Z,19.78
2018-09-02T03:17:21.644Z,19.72
2018-09-02T03:17:53.714Z,19.78
2018-09-02T03:18:25.777Z,19.8
2018-09-02T03:18:57.840Z,19.78
2018-09-02T03:19:29.922Z,19.75
2018-09-02T03:20:01.976Z,19.82
2018-09-02T03:20:34.029Z,19.78
2018-09-02T03:21:06.112Z,19.79
2018-09-02T03:21:38.176Z,19.8
2018-09-02T03:22:10.294Z,19.78
2018-09-02T03:22:42.362Z,19.74
2018-09-02T03:23:14.439Z,19.75
2018-09-02T03:23:46.472Z,19.74
2018-09-02T03:24:18.533Z,19.8
2018-09-02T03:24:50.618Z,19.71
2018-09-02T03:25:23.574Z,19.72
2018-09-02T03:25:55.609Z,19.71
2018-09-02T03:26:27.667Z,19.74
2018-09-02T03:26:59.749Z,19.71
2018-09-02T03:27:31.827Z,19.68
2018-09-02T03:28:03.876Z,19.74
2018-09-02T03:28:36.015Z,19.67
2018-09-02T03:29:08.075Z,19.75
2018-09-02T03:29:40.195Z,19.67
2018-09-02T03:30:12.261Z,19.67
2018-09-02T03:30:44.404Z,19.64
2018-09-02T03:31:16.497Z,19.72
2018-09-02T03:31:48.551Z,19.7
2018-09-02T03:32:20.633Z,19.67
2018-09-02T03:32:52.684Z,19.65
2018-09-02T03:33:24.754Z,19.71
2018-09-02T03:33:56.792Z,19.67
2018-09-02T03:34:28.824Z,19.68
2018-09-02T03:35:00.910Z,19.71
2018-09-02T03:35:33.091Z,19.7
2018-09-02T03:36:05.138Z,19.7
2018-09-02T03:36:37.202Z,19.7
2018-09-02T03:37:09.216Z,19.68
2018-09-02T03:37:41.250Z,19.74
2018-09-02T03:38:13.339Z,19.64
2018-09-02T03:38:45.409Z,19.68
2018-09-02T03:39:17.448Z,19.67
2018-09-02T03:39:49.588Z,19.63
2018-09-02T03:40:21.700Z,19.64
2018-09-02T03:40:53.759Z,19.71
2018-09-02T03:41:25.827Z,19.64
2018-09-02T03:41:57.875Z,19.68
2018-09-02T03:42:29.935Z,19.7
2018-09-02T03:43:02.036Z,19.72
2018-09-02T03:43:34.126Z,19.65
2018-09-02T03:44:06.133Z,19.65
2018-09-02T03:44:38.185Z,19.63
2018-09-02T03:45:10.332Z,19.71
2018-09-02T03:45:42.387Z,19.68
2018-09-02T03:46:14.445Z,19.68
2018-09-02T03:46:46.500Z,19.61
2018-09-02T03:47:18.514Z,19.68
2018-09-02T03:47:50.626Z,19.68
2018-09-02T03:48:22.694Z,19.68
2018-09-02T03:48:54.739Z,19.65
2018-09-02T03:49:26.876Z,19.63
2018-09-02T03:49:58.953Z,19.65
2018-09-02T03:50:31.058Z,19.64
2018-09-02T03:51:03.124Z,19.67
2018-09-02T03:51:35.188Z,19.64
2018-09-02T03:52:07.197Z,19.65
2018-09-02T03:52:39.254Z,19.68
2018-09-02T03:53:11.300Z,19.68
2018-09-02T03:53:43.404Z,19.67
2018-09-02T03:54:15.446Z,19.67
2018-09-02T03:54:47.460Z,19.68
2018-09-02T03:55:19.495Z,19.65
2018-09-02T03:55:51.653Z,19.68
2018-09-02T03:56:23.743Z,19.7
2018-09-02T03:56:55.797Z,19.65
2018-09-02T03:57:27.846Z,19.64
2018-09-02T03:57:59.871Z,19.63
2018-09-02T03:58:31.993Z,19.6
2018-09-02T03:59:04.148Z,19.64
2018-09-02T03:59:36.178Z,19.67
2018-09-02T04:00:08.261Z,19.64
2018-09-02T04:00:40.325Z,19.67
2018-09-02T04:01:12.419Z,19.6
2018-09-02T04:01:44.473Z,19.56
2018-09-02T04:02:16.557Z,19.71
2018-09-02T04:02:48.602Z,19.63
2018-09-02T04:03:20.656Z,19.65
2018-09-02T04:03:52.723Z,19.57
2018-09-02T04:04:24.758Z,19.63
2018-09-02T04:04:56.818Z,19.64
2018-09-02T04:05:28.896Z,19.55
2018-09-02T04:06:00.940Z,19.61
2018-09-02T04:06:32.988Z,19.65
2018-09-02T04:07:05.860Z,19.57
2018-09-02T04:07:37.934Z,19.63
2018-09-02T04:08:10.030Z,19.64
2018-09-02T04:08:42.100Z,19.6
2018-09-02T04:09:14.144Z,19.6
2018-09-02T04:09:46.211Z,19.61
2018-09-02T04:10:18.231Z,19.63
2018-09-02T04:10:50.385Z,19.61
2018-09-02T04:11:22.549Z,19.61
2018-09-02T04:11:54.586Z,19.64
2018-09-02T04:12:26.644Z,19.6
2018-09-02T04:12:58.753Z,19.64
2018-09-02T04:13:30.826Z,19.61
2018-09-02T04:14:02.904Z,19.53
2018-09-02T04:14:34.982Z,19.64
2018-09-02T04:15:07.055Z,19.6
2018-09-02T04:15:39.161Z,19.63
2018-09-02T04:16:11.185Z,19.64
2018-09-02T04:16:43.278Z,19.61
2018-09-02T04:17:15.360Z,19.63
2018-09-02T04:17:47.409Z,19.6
2018-09-02T04:18:19.465Z,19.57
2018-09-02T04:18:51.543Z,19.63
2018-09-02T04:19:23.614Z,19.65
2018-09-02T04:19:55.704Z,19.63
2018-09-02T04:20:27.778Z,19.57
2018-09-02T04:20:59.919Z,19.64
2018-09-02T04:21:31.954Z,19.63
2018-09-02T04:22:04.021Z,19.61
2018-09-02T04:22:36.059Z,19.56
2018-09-02T04:23:08.118Z,19.61
2018-09-02T04:23:40.186Z,19.6
2018-09-02T04:24:12.243Z,19.61
2018-09-02T04:24:44.298Z,19.52
2018-09-02T04:25:16.510Z,19.61
2018-09-02T04:25:48.530Z,19.61
2018-09-02T04:26:20.565Z,19.64
2018-09-02T04:26:52.611Z,19.52
2018-09-02T04:27:24.666Z,19.53
2018-09-02T04:27:56.759Z,19.64
2018-09-02T04:28:28.802Z,19.61
2018-09-02T04:29:00.795Z,19.53
2018-09-02T04:29:32.887Z,19.6
2018-09-02T04:30:04.999Z,19.52
2018-09-02T04:30:37.067Z,19.63
2018-09-02T04:31:09.116Z,19.52
2018-09-02T04:31:41.183Z,19.52
2018-09-02T04:32:13.218Z,19.49
2018-09-02T04:32:45.268Z,19.52
2018-09-02T04:33:17.306Z,19.52
2018-09-02T04:33:49.407Z,19.55
2018-09-02T04:34:21.440Z,19.49
2018-09-02T04:34:53.508Z,19.49
2018-09-02T04:35:25.520Z,19.55
2018-09-02T04:35:57.580Z,19.49
2018-09-02T04:36:29.636Z,19.6
2018-09-02T04:37:01.694Z,19.52
2018-09-02T04:37:33.762Z,19.47
2018-09-02T04:38:05.915Z,19.55
2018-09-02T04:38:37.969Z,19.49
2018-09-02T04:39:10.011Z,19.53
2018-09-02T04:39:42.092Z,19.53
2018-09-02T04:40:14.162Z,19.53
2018-09-02T04:40:46.307Z,19.53
2018-09-02T04:41:18.477Z,19.55
2018-09-02T04:41:51.213Z,19.56
2018-09-02T04:42:23.214Z,19.55
2018-09-02T04:42:55.293Z,19.52
2018-09-02T04:43:27.352Z,19.52
2018-09-02T04:43:59.410Z,19.53
2018-09-02T04:44:31.435Z,19.5
2018-09-02T04:45:03.502Z,19.55
2018-09-02T04:45:35.625Z,19.52
2018-09-02T04:46:07.645Z,19.56
2018-09-02T04:46:39.724Z,19.56
2018-09-02T04:47:11.755Z,19.52
2018-09-02T04:47:43.820Z,19.5
2018-09-02T04:48:15.878Z,19.47
2018-09-02T04:48:47.963Z,19.5
2018-09-02T04:49:20.024Z,19.52
2018-09-02T04:49:52.060Z,19.52
2018-09-02T04:50:24.685Z,19.5
2018-09-02T04:50:56.803Z,19.52
2018-09-02T04:51:28.876Z,19.5
2018-09-02T04:52:00.897Z,19.52
2018-09-02T04:52:32.976Z,19.5
2018-09-02T04:53:05.478Z,19.55
2018-09-02T04:53:37.506Z,19.55
2018-09-02T04:54:09.564Z,19.5
2018-09-02T04:54:41.719Z,19.5
2018-09-02T04:55:13.832Z,19.52
2018-09-02T04:55:45.854Z,19.57
2018-09-02T04:56:17.860Z,19.55
2018-09-02T04:56:49.994Z,19.5
2018-09-02T04:57:22.059Z,19.55
2018-09-02T04:57:54.221Z,19.55
2018-09-02T04:58:26.261Z,19.5
2018-09-02T04:58:58.304Z,19.5
2018-09-02T04:59:30.396Z,19.55
2018-09-02T05:00:02.480Z,19.56
2018-09-02T05:00:34.553Z,19.52
2018-09-02T05:01:06.636Z,19.5
2018-09-02T05:01:38.709Z,19.52
2018-09-02T05:02:10.747Z,19.55
2018-09-02T05:02:42.810Z,19.52
2018-09-02T05:03:14.851Z,19.52
2018-09-02T05:03:46.918Z,19.49
2018-09-02T05:04:19.016Z,19.56
2018-09-02T05:04:51.020Z,19.52
2018-09-02T05:05:23.092Z,19.56
2018-09-02T05:05:55.168Z,19.52
2018-09-02T05:06:27.211Z,19.52
2018-09-02T05:06:59.221Z,19.52
2018-09-02T05:07:31.888Z,19.53
2018-09-02T05:08:03.970Z,19.52
2018-09-02T05:08:35.957Z,19.53
2018-09-02T05:09:08.013Z,19.46
2018-09-02T05:09:40.049Z,19.5
2018-09-02T05:10:12.159Z,19.47
2018-09-02T05:10:44.700Z,19.47
2018-09-02T05:11:16.788Z,19.56
2018-09-02T05:11:48.860Z,19.55
2018-09-02T05:12:21.032Z,19.52
2018-09-02T05:12:53.116Z,19.56
2018-09-02T05:13:25.191Z,19.55
2018-09-02T05:13:57.252Z,19.61
2018-09-02T05:14:29.274Z,19.49
2018-09-02T05:15:01.432Z,19.52
2018-09-02T05:15:33.492Z,19.55
2018-09-02T05:16:05.576Z,19.55
2018-09-02T05:16:37.626Z,19.49
2018-09-02T05:17:09.676Z,19.55
2018-09-02T05:17:41.783Z,19.52
2018-09-02T05:18:13.834Z,19.55
2018-09-02T05:18:45.910Z,19.6
2018-09-02T05:19:17.976Z,19.6
2018-09-02T05:19:50.067Z,19.6
2018-09-02T05:20:22.134Z,19.63
2018-09-02T05:20:54.166Z,19.61
2018-09-02T05:21:26.162Z,19.53
2018-09-02T05:21:58.309Z,19.64
2018-09-02T05:22:30.436Z,19.6
2018-09-02T05:23:02.548Z,19.61
2018-09-02T05:23:34.570Z,19.61
2018-09-02T05:24:06.567Z,19.61
2018-09-02T05:24:38.640Z,19.61
2018-09-02T05:25:10.839Z,19.61
2018-09-02T05:25:42.907Z,19.63
2018-09-02T05:26:14.891Z,19.65
2018-09-02T05:26:47.501Z,19.57
2018-09-02T05:27:19.564Z,19.63
2018-09-02T05:27:51.600Z,19.64
2018-09-02T05:28:23.687Z,19.61
2018-09-02T05:28:55.748Z,19.63
2018-09-02T05:29:27.829Z,19.72
2018-09-02T05:29:59.913Z,19.65
2018-09-02T05:30:31.969Z,19.67
2018-09-02T05:31:04.024Z,19.65
2018-09-02T05:31:36.085Z,19.67
2018-09-02T05:32:08.099Z,19.63
2018-09-02T05:32:40.176Z,19.65
2018-09-02T05:33:12.238Z,19.7
2018-09-02T05:33:44.256Z,19.68
2018-09-02T05:34:16.284Z,19.67
2018-09-02T05:34:48.354Z,19.65
2018-09-02T05:35:20.393Z,19.65
2018-09-02T05:35:52.582Z,19.7
2018-09-02T05:36:24.648Z,19.67
2018-09-02T05:36:56.716Z,19.67
2018-09-02T05:37:28.813Z,19.65
2018-09-02T05:38:00.905Z,19.67
2018-09-02T05:38:32.973Z,19.65
2018-09-02T05:39:05.021Z,19.68
2018-09-02T05:39:37.077Z,19.71
2018-09-02T05:40:09.057Z,19.64
2018-09-02T05:40:41.111Z,19.63
2018-09-02T05:41:13.163Z,19.64
2018-09-02T05:41:45.191Z,19.68
2018-09-02T05:42:17.236Z,19.71
2018-09-02T05:42:49.287Z,19.72
2018-09-02T05:43:21.358Z,19.7
2018-09-02T05:43:53.571Z,19.71
2018-09-02T05:44:25.597Z,19.7
2018-09-02T05:44:57.609Z,19.68
2018-09-02T05:45:29.663Z,19.63
2018-09-02T05:46:01.689Z,19.72
2018-09-02T05:46:33.765Z,19.67
2018-09-02T05:47:05.802Z,19.75
2018-09-02T05:47:37.905Z,19.71
2018-09-02T05:48:09.947Z,19.63
2018-09-02T05:48:42.060Z,19.74
2018-09-02T05:49:14.790Z,19.67
2018-09-02T05:49:46.898Z,19.74
2018-09-02T05:50:18.986Z,19.74
2018-09-02T05:50:51.062Z,19.78
2018-09-02T05:51:23.070Z,19.79
2018-09-02T05:51:55.144Z,19.7
2018-09-02T05:52:27.193Z,19.74
2018-09-02T05:52:59.274Z,19.74
2018-09-02T05:53:31.306Z,19.71
2018-09-02T05:54:03.389Z,19.79
2018-09-02T05:54:35.420Z,19.79
2018-09-02T05:55:07.522Z,19.74
2018-09-02T05:55:39.600Z,19.82
2018-09-02T05:56:11.646Z,19.82
2018-09-02T05:56:43.692Z,19.82
2018-09-02T05:57:15.768Z,19.82
2018-09-02T05:57:47.826Z,19.75
2018-09-02T05:58:19.929Z,19.8
2018-09-02T05:58:51.938Z,19.83
2018-09-02T05:59:23.986Z,19.8
2018-09-02T05:59:56.057Z,19.74
2018-09-02T06:00:28.193Z,19.85
2018-09-02T06:01:00.231Z,19.83
2018-09-02T06:01:32.308Z,19.83
2018-09-02T06:02:04.406Z,19.86
2018-09-02T06:02:36.503Z,19.86
2018-09-02T06:03:08.598Z,19.87
2018-09-02T06:03:40.620Z,19.89
2018-09-02T06:04:12.679Z,19.87
2018-09-02T06:04:44.754Z,19.92
2018-09-02T06:05:16.931Z,19.92
2018-09-02T06:05:48.942Z,19.9
2018-09-02T06:06:21.012Z,19.98
2018-09-02T06:06:53.183Z,19.93
2018-09-02T06:07:25.279Z,20.05
2018-09-02T06:07:57.337Z,20.04
2018-09-02T06:08:29.392Z,20.05
2018-09-02T06:09:01.461Z,20.04
2018-09-02T06:09:33.512Z,20.01
2018-09-02T06:10:05.543Z,20.04
2018-09-02T06:10:37.614Z,20.1
2018-09-02T06:11:09.661Z,20.07
2018-09-02T06:11:41.744Z,20.16
2018-09-02T06:12:13.893Z,20.11
2018-09-02T06:12:45.970Z,20.08
2018-09-02T06:13:17.998Z,20.19
2018-09-02T06:13:50.067Z,20.11
2018-09-02T06:14:22.073Z,20.19
2018-09-02T06:14:54.092Z,20.2
2018-09-02T06:15:26.144Z,20.2
2018-09-02T06:15:58.281Z,20.23
2018-09-02T06:16:30.343Z,20.16
2018-09-02T06:17:02.401Z,20.26
2018-09-02T06:17:34.454Z,20.29
2018-09-02T06:18:06.507Z,20.27
2018-09-02T06:18:38.642Z,20.25
2018-09-02T06:19:10.659Z,20.27
2018-09-02T06:19:42.723Z,20.35
2018-09-02T06:20:14.806Z,20.37
2018-09-02T06:20:46.845Z,20.34
2018-09-02T06:21:18.858Z,20.34
2018-09-02T06:21:50.872Z,20.34
2018-09-02T06:22:22.900Z,20.35
2018-09-02T06:22:54.950Z,20.38
2018-09-02T06:23:27.077Z,20.46
2018-09-02T06:23:59.232Z,20.48
2018-09-02T06:24:31.309Z,20.56
2018-09-02T06:25:03.327Z,20.49
2018-09-02T06:25:35.359Z,20.58
2018-09-02T06:26:07.418Z,20.61
2018-09-02T06:26:39.571Z,20.57
2018-09-02T06:27:11.622Z,20.61
2018-09-02T06:27:43.680Z,20.57
2018-09-02T06:28:15.820Z,20.58
2018-09-02T06:28:47.786Z,20.61
2018-09-02T06:29:19.854Z,20.61
2018-09-02T06:29:51.884Z,20.68
2018-09-02T06:30:24.045Z,20.68
2018-09-02T06:30:56.092Z,20.68
2018-09-02T06:31:28.158Z,20.68
2018-09-02T06:32:00.333Z,20.66
2018-09-02T06:32:32.364Z,20.72
2018-09-02T06:33:04.443Z,20.76
2018-09-02T06:33:36.514Z,20.86
2018-09-02T06:34:08.639Z,20.82
2018-09-02T06:34:40.789Z,20.82
2018-09-02T06:35:12.821Z,20.86
2018-09-02T06:35:44.891Z,20.82
2018-09-02T06:36:17.025Z,20.9
2018-09-02T06:36:49.120Z,20.88
2018-09-02T06:37:21.212Z,20.96
2018-09-02T06:37:53.257Z,20.9
2018-09-02T06:38:25.378Z,20.88
2018-09-02T06:38:57.398Z,21.01
2018-09-02T06:39:29.497Z,20.97
2018-09-02T06:40:01.563Z,21.01
2018-09-02T06:40:33.572Z,21.06
2018-09-02T06:41:05.651Z,21
2018-09-02T06:41:37.678Z,21.06
2018-09-02T06:42:09.671Z,21
2018-09-02T06:42:41.720Z,21.04
2018-09-02T06:43:13.722Z,20.96
2018-09-02T06:43:45.772Z,21.01
2018-09-02T06:44:17.859Z,21.03
2018-09-02T06:44:49.991Z,21.09
2018-09-02T06:45:22.066Z,21.01
2018-09-02T06:45:54.142Z,21.13
2018-09-02T06:46:26.165Z,21.13
2018-09-02T06:46:58.234Z,21.12
2018-09-02T06:47:30.315Z,21.22
2018-09-02T06:48:02.479Z,21.18
2018-09-02T06:48:34.499Z,21.22
2018-09-02T06:49:06.581Z,21.19
2018-09-02T06:49:38.648Z,21.31
2018-09-02T06:50:10.715Z,21.27
2018-09-02T06:50:42.794Z,21.22
2018-09-02T06:51:14.848Z,21.3
2018-09-02T06:51:46.971Z,21.28
2018-09-02T06:52:19.019Z,21.31
2018-09-02T06:52:51.086Z,21.31
2018-09-02T06:53:23.170Z,21.3
2018-09-02T06:53:55.250Z,21.37
2018-09-02T06:54:27.405Z,21.38
2018-09-02T06:54:59.527Z,21.43
2018-09-02T06:55:31.672Z,21.51